createdAt,value
2018-02-18T21:54:26.289Z,57.80
2018-02-18T21:56:56.405Z,57.20
2018-02-18T21:59:25.605Z,57.10
2018-02-18T22:01:55.314Z,58.70
2018-02-18T22:04:24.516Z,57.10
2018-02-18T22:06:53.749Z,58.30
2018-02-18T22:09:23.032Z,57.20
2018-02-18T22:11:52.649Z,58.10
2018-02-18T22:14:22.176Z,57.60
2018-02-18T22:16:51.372Z,57.20
2018-02-18T22:19:20.753Z,58.30
2018-02-18T22:21:49.945Z,58.70
2018-02-18T22:24:19.352Z,57.10
2018-02-18T22:26:48.797Z,57.10
2018-02-18T22:29:18.157Z,58.80
2018-02-18T22:31:47.361Z,57.90
2018-02-18T22:34:16.771Z,57.90
2018-02-18T22:39:13.585Z,58.20
2018-02-18T22:41:42.838Z,58.20
2018-02-18T22:44:12.964Z,59.30
2018-02-18T22:46:43.585Z,59.30
2018-02-18T22:49:13.614Z,57.60
2018-02-18T22:51:43.539Z,57.20
2018-02-18T22:54:12.781Z,58.30
2018-02-18T22:56:42.932Z,58.00
2018-02-18T22:59:12.541Z,59.20
2018-02-18T23:01:42.145Z,58.50
2018-02-18T23:04:11.570Z,59.20
2018-02-18T23:06:40.960Z,58.50
2018-02-18T23:09:10.983Z,59.10
2018-02-18T23:11:40.389Z,59.00
2018-02-18T23:14:09.630Z,58.70
2018-02-18T23:16:38.977Z,58.70
2018-02-18T23:19:08.215Z,59.50
2018-02-18T23:21:37.576Z,59.80
2018-02-18T23:24:07.320Z,59.00
2018-02-18T23:26:36.720Z,60.50
2018-02-18T23:29:06.055Z,59.80
2018-02-18T23:31:35.407Z,59.60
2018-02-18T23:34:05.405Z,61.30
2018-02-18T23:36:35.433Z,60.80
2018-02-18T23:39:04.669Z,61.20
2018-02-18T23:41:34.528Z,60.80
2018-02-18T23:44:04.751Z,61.50
2018-02-18T23:46:33.991Z,61.50
2018-02-18T23:49:03.367Z,61.60
2018-02-18T23:51:32.592Z,61.60
2018-02-18T23:54:01.970Z,61.50
2018-02-18T23:56:31.207Z,61.20
2018-02-18T23:59:00.606Z,63.00
